createdAt,value
2023-02-22T00:01:21.804Z,21.13
2023-02-22T00:03:50.831Z,20.20
2023-02-22T00:06:19.672Z,21.67
2023-02-22T00:08:48.600Z,22.40
2023-02-22T00:11:16.952Z,22.20
2023-02-22T00:13:44.993Z,20.63
2023-02-22T00:16:17.536Z,20.33
2023-02-22T00:18:44.386Z,18.20
2023-02-22T00:21:12.840Z,16.97
2023-02-22T00:23:47.982Z,18.37
2023-02-22T00:26:23.283Z,18.30
2023-02-22T00:28:52.746Z,23.37
2023-02-22T00:31:19.998Z,20.03
2023-02-22T00:33:47.204Z,24.27
2023-02-22T00:36:14.748Z,23.40
2023-02-22T00:38:42.448Z,24.17
2023-02-22T00:41:09.888Z,25.27
2023-02-22T00:43:36.690Z,26.73
2023-02-22T00:46:04.127Z,25.10
2023-02-22T00:48:33.281Z,24.30
2023-02-22T00:50:59.858Z,29.57
2023-02-22T00:53:27.545Z,25.70
2023-02-22T00:55:54.487Z,32.10
2023-02-22T00:58:22.062Z,29.07
2023-02-22T01:00:49.763Z,26.73
2023-02-22T01:03:19.197Z,30.30
2023-02-22T01:05:46.721Z,28.60
2023-02-22T01:08:15.489Z,29.63
2023-02-22T01:10:42.409Z,27.77
2023-02-22T01:13:11.955Z,21.97
2023-02-22T01:15:41.090Z,28.03
2023-02-22T01:18:08.105Z,26.43
2023-02-22T01:20:36.070Z,23.63
2023-02-22T01:23:06.428Z,26.37
2023-02-22T01:25:33.676Z,26.03
2023-02-22T01:28:01.860Z,28.37
2023-02-22T01:30:32.831Z,28.37
2023-02-22T01:33:00.987Z,28.40
2023-02-22T01:35:31.586Z,27.67
2023-02-22T01:37:58.452Z,31.87
2023-02-22T01:40:32.050Z,28.83
2023-02-22T01:43:04.457Z,27.63
2023-02-22T01:45:32.427Z,28.97
2023-02-22T01:48:13.921Z,30.53
2023-02-22T01:50:44.830Z,36.43
2023-02-22T01:53:16.314Z,27.83
2023-02-22T01:55:44.106Z,27.27
2023-02-22T01:58:11.467Z,25.93
2023-02-22T02:00:39.942Z,32.37
2023-02-22T02:03:21.688Z,29.53
2023-02-22T02:05:51.494Z,29.90
2023-02-22T02:08:49.741Z,27.73
2023-02-22T02:11:20.168Z,28.83
2023-02-22T02:13:49.942Z,27.57
2023-02-22T02:16:16.882Z,23.23
2023-02-22T02:18:44.682Z,23.13
2023-02-22T02:22:03.835Z,28.67
2023-02-22T02:24:55.887Z,23.40
2023-02-22T02:27:26.332Z,24.13
2023-02-22T02:30:30.634Z,27.30
2023-02-22T02:33:25.333Z,23.47
2023-02-22T02:36:03.483Z,22.50
2023-02-22T02:38:45.660Z,21.53
2023-02-22T02:41:16.603Z,23.27
2023-02-22T02:44:05.941Z,21.53
2023-02-22T02:46:46.626Z,24.27
2023-02-22T02:49:18.481Z,19.47
2023-02-22T02:51:50.192Z,18.43
2023-02-22T02:54:17.774Z,18.77
2023-02-22T02:56:45.662Z,17.00
2023-02-22T02:59:33.396Z,19.50
2023-02-22T03:02:03.177Z,18.40
2023-02-22T03:05:14.522Z,18.20
2023-02-22T03:08:07.643Z,16.30
2023-02-22T03:11:15.536Z,20.27
2023-02-22T03:13:55.527Z,19.13
2023-02-22T03:16:34.714Z,15.17
2023-02-22T03:19:11.552Z,21.33
2023-02-22T03:21:49.232Z,19.30
2023-02-22T03:24:37.417Z,18.03
2023-02-22T03:27:10.713Z,21.50
2023-02-22T03:29:44.011Z,18.77
2023-02-22T03:32:16.907Z,25.27
2023-02-22T03:34:57.217Z,18.93
2023-02-22T03:37:32.051Z,19.63
2023-02-22T03:40:00.738Z,16.40
2023-02-22T03:42:34.693Z,18.33
2023-02-22T03:45:05.140Z,17.23
2023-02-22T03:47:41.781Z,17.10
2023-02-22T03:50:15.231Z,18.00
2023-02-22T03:52:43.978Z,15.50
2023-02-22T03:55:17.644Z,15.13
2023-02-22T03:57:52.851Z,18.23
2023-02-22T04:00:25.435Z,18.27
2023-02-22T04:02:52.112Z,16.73
2023-02-22T04:05:20.686Z,17.83
2023-02-22T04:07:48.113Z,16.90
2023-02-22T04:10:16.504Z,19.90
2023-02-22T04:12:43.706Z,17.23
2023-02-22T04:15:14.152Z,20.77
2023-02-22T04:17:40.889Z,18.10
2023-02-22T04:20:11.594Z,19.57
2023-02-22T04:22:45.220Z,20.07
2023-02-22T04:25:12.753Z,16.70
2023-02-22T04:27:39.461Z,27.80
2023-02-22T04:30:06.611Z,17.43
2023-02-22T04:32:35.232Z,17.37
2023-02-22T04:35:03.548Z,18.57
2023-02-22T04:37:34.598Z,17.43
2023-02-22T04:40:08.664Z,16.63
2023-02-22T04:42:37.774Z,17.07
2023-02-22T04:45:07.868Z,17.37
2023-02-22T04:47:35.999Z,18.70
2023-02-22T04:50:04.793Z,18.33
2023-02-22T04:52:31.433Z,19.27
2023-02-22T04:54:58.248Z,19.03
2023-02-22T04:57:25.166Z,17.23
2023-02-22T04:59:51.774Z,21.17
2023-02-22T05:02:19.527Z,21.80
2023-02-22T05:04:46.201Z,18.63
2023-02-22T05:07:12.891Z,23.90
2023-02-22T05:09:39.548Z,21.30
2023-02-22T05:12:06.450Z,20.57
2023-02-22T05:14:33.151Z,21.80
2023-02-22T05:17:01.681Z,22.63
2023-02-22T05:19:28.536Z,22.57
2023-02-22T05:21:56.431Z,23.80
2023-02-22T05:24:23.098Z,22.90
2023-02-22T05:26:51.163Z,27.23
2023-02-22T05:29:17.851Z,23.90
2023-02-22T05:31:44.511Z,30.00
2023-02-22T05:34:11.192Z,30.10
2023-02-22T05:36:37.812Z,25.70
2023-02-22T05:39:05.371Z,27.50
2023-02-22T05:41:32.018Z,27.70
2023-02-22T05:43:58.667Z,31.43
2023-02-22T05:46:25.429Z,31.23
2023-02-22T05:48:52.045Z,28.33
2023-02-22T05:51:19.655Z,29.10
2023-02-22T05:53:46.369Z,31.50
2023-02-22T05:56:12.980Z,29.30
2023-02-22T05:58:39.576Z,28.33
2023-02-22T06:01:06.166Z,28.40
2023-02-22T06:03:32.802Z,27.00
2023-02-22T06:05:59.432Z,27.33
2023-02-22T06:08:26.070Z,28.90
2023-02-22T06:10:52.693Z,28.17
2023-02-22T06:13:19.310Z,29.13
2023-02-22T06:15:45.997Z,33.40
2023-02-22T06:18:12.625Z,32.90
2023-02-22T06:20:39.206Z,36.53
2023-02-22T06:23:05.879Z,31.93
2023-02-22T06:25:32.603Z,29.73
2023-02-22T06:28:00.587Z,32.20
2023-02-22T06:30:28.129Z,29.00
2023-02-22T06:32:54.944Z,32.23
2023-02-22T06:35:21.950Z,33.03
2023-02-22T06:37:48.776Z,32.17
2023-02-22T06:40:15.869Z,34.67
2023-02-22T06:42:42.883Z,38.33
2023-02-22T06:45:10.139Z,34.10
2023-02-22T06:47:41.313Z,33.87
2023-02-22T06:50:18.436Z,34.77
2023-02-22T06:52:45.136Z,34.63
2023-02-22T06:55:11.737Z,35.60
2023-02-22T06:57:38.348Z,35.47
2023-02-22T07:00:05.340Z,34.90
2023-02-22T07:02:31.925Z,36.80
2023-02-22T07:04:58.502Z,34.50
2023-02-22T07:07:25.263Z,29.93
2023-02-22T07:09:51.966Z,30.80
2023-02-22T07:12:18.694Z,29.63
2023-02-22T07:14:45.333Z,27.97
2023-02-22T07:17:14.574Z,27.77
2023-02-22T07:19:41.160Z,26.60
2023-02-22T07:22:07.749Z,26.33
2023-02-22T07:24:35.083Z,27.27
2023-02-22T07:27:02.535Z,27.63
2023-02-22T07:29:29.209Z,24.93
2023-02-22T07:31:57.603Z,26.47
2023-02-22T07:34:24.424Z,26.43
2023-02-22T07:36:51.010Z,27.73
2023-02-22T07:39:17.639Z,25.07
2023-02-22T07:41:44.233Z,24.77
2023-02-22T07:44:23.653Z,24.47
2023-02-22T07:46:50.317Z,24.90
2023-02-22T07:49:17.650Z,24.47
2023-02-22T07:51:44.256Z,24.43
2023-02-22T07:54:10.886Z,24.23
2023-02-22T07:56:37.486Z,23.93
2023-02-22T07:59:04.101Z,23.17
2023-02-22T08:01:31.852Z,20.97
2023-02-22T08:03:58.522Z,21.23
2023-02-22T08:06:25.831Z,21.07
2023-02-22T08:08:52.481Z,23.77
2023-02-22T08:11:19.385Z,22.43
2023-02-22T08:13:46.178Z,22.03
2023-02-22T08:16:12.911Z,23.20
2023-02-22T08:18:41.031Z,22.10
2023-02-22T08:21:07.809Z,22.13
2023-02-22T08:23:34.464Z,20.50
2023-02-22T08:26:08.625Z,20.87
2023-02-22T08:28:35.529Z,22.87
2023-02-22T08:31:02.236Z,19.20
2023-02-22T08:33:28.840Z,22.50
2023-02-22T08:35:57.659Z,23.73
2023-02-22T08:38:30.604Z,22.63
2023-02-22T08:40:57.308Z,21.30
2023-02-22T08:43:24.390Z,18.23
2023-02-22T08:45:52.474Z,20.10
2023-02-22T08:48:19.836Z,22.60
2023-02-22T08:50:46.919Z,24.33
2023-02-22T08:53:16.097Z,22.00
2023-02-22T08:55:43.547Z,20.27
2023-02-22T08:58:10.603Z,21.73
2023-02-22T09:00:38.649Z,22.80
2023-02-22T09:03:08.829Z,21.30
2023-02-22T09:05:35.485Z,23.43
2023-02-22T09:08:02.246Z,24.07
2023-02-22T09:10:31.609Z,23.00
2023-02-22T09:13:00.646Z,22.50
2023-02-22T09:15:28.293Z,24.10
2023-02-22T09:17:55.659Z,23.37
2023-02-22T09:20:24.014Z,22.47
2023-02-22T09:22:50.858Z,25.17
2023-02-22T09:25:20.623Z,22.47
2023-02-22T09:27:48.967Z,22.77
2023-02-22T09:30:23.389Z,28.10
2023-02-22T09:32:54.993Z,24.17
2023-02-22T09:35:26.887Z,24.67
2023-02-22T09:37:58.187Z,25.53
2023-02-22T09:40:29.775Z,25.70
2023-02-22T09:43:02.324Z,25.07
2023-02-22T09:45:45.000Z,24.87
2023-02-22T09:48:21.687Z,24.97
2023-02-22T09:50:52.694Z,22.17
2023-02-22T09:53:41.597Z,21.90
2023-02-22T09:56:14.572Z,28.30
2023-02-22T09:59:07.045Z,26.87
2023-02-22T10:02:06.613Z,24.80
2023-02-22T10:04:41.247Z,23.30
2023-02-22T10:07:30.348Z,24.30
2023-02-22T10:09:58.483Z,23.80
2023-02-22T10:12:44.045Z,23.60
2023-02-22T10:15:54.199Z,19.00
2023-02-22T10:19:00.025Z,17.77
2023-02-22T10:21:40.237Z,19.30
2023-02-22T10:24:18.839Z,20.23
2023-02-22T10:26:46.747Z,19.20
2023-02-22T10:29:51.722Z,20.87
2023-02-22T10:32:31.123Z,20.87
2023-02-22T10:35:00.330Z,20.43
2023-02-22T10:37:33.795Z,21.10
2023-02-22T10:40:18.625Z,20.87
2023-02-22T10:42:45.295Z,22.57
2023-02-22T10:45:35.795Z,24.23
2023-02-22T10:48:14.449Z,22.40
2023-02-22T10:50:43.516Z,22.50
2023-02-22T10:53:11.927Z,22.80
2023-02-22T10:56:13.302Z,21.07
2023-02-22T10:58:46.550Z,24.33
2023-02-22T11:01:27.879Z,22.63
2023-02-22T11:04:21.676Z,23.70
2023-02-22T11:07:19.108Z,22.77
2023-02-22T11:09:51.544Z,23.10
2023-02-22T11:12:26.102Z,22.20
2023-02-22T11:14:52.711Z,23.03
2023-02-22T11:17:31.602Z,21.40
2023-02-22T11:19:59.887Z,15.83
2023-02-22T11:22:31.653Z,19.63
2023-02-22T11:25:02.586Z,24.40
2023-02-22T11:27:38.036Z,22.23
2023-02-22T11:30:37.222Z,21.47
2023-02-22T11:33:25.640Z,20.07
2023-02-22T11:35:58.154Z,19.20
2023-02-22T11:38:26.145Z,19.57
2023-02-22T11:41:08.122Z,21.73
2023-02-22T11:43:35.361Z,19.83
2023-02-22T11:46:17.902Z,19.13
2023-02-22T11:49:06.748Z,16.83
2023-02-22T11:51:57.911Z,17.50
2023-02-22T11:55:02.888Z,20.23
2023-02-22T11:57:42.381Z,18.17
2023-02-22T12:00:24.734Z,19.87
2023-02-22T12:03:22.509Z,18.33
2023-02-22T12:06:08.675Z,12.30
2023-02-22T12:08:47.978Z,18.53
2023-02-22T12:11:31.127Z,18.03
2023-02-22T12:14:25.298Z,19.17
2023-02-22T12:17:20.144Z,18.27
2023-02-22T12:20:10.265Z,18.17
2023-02-22T12:22:47.516Z,17.77
2023-02-22T12:25:29.369Z,20.00
2023-02-22T12:28:24.297Z,14.90
2023-02-22T12:31:06.738Z,18.97
2023-02-22T12:33:51.418Z,19.50
2023-02-22T12:36:22.901Z,21.80
2023-02-22T12:38:56.996Z,20.20
2023-02-22T12:41:46.857Z,19.00
2023-02-22T12:44:21.894Z,18.57
2023-02-22T12:46:53.306Z,19.27
2023-02-22T12:49:35.105Z,19.57
2023-02-22T12:52:15.948Z,17.13
2023-02-22T12:55:01.846Z,19.57
2023-02-22T12:57:57.071Z,20.33
2023-02-22T13:00:48.065Z,17.93
2023-02-22T13:03:14.763Z,16.87
2023-02-22T13:05:41.491Z,17.80
2023-02-22T13:08:34.281Z,19.80
2023-02-22T13:11:10.291Z,16.77
2023-02-22T13:13:53.871Z,16.40
2023-02-22T13:16:52.555Z,17.97
2023-02-22T13:19:40.657Z,19.67
2023-02-22T13:22:16.432Z,18.30
2023-02-22T13:24:58.390Z,16.13
2023-02-22T13:27:42.019Z,19.37
2023-02-22T13:30:40.566Z,16.10
2023-02-22T13:33:23.251Z,14.03
2023-02-22T13:36:06.806Z,15.37
2023-02-22T13:39:10.382Z,15.67
2023-02-22T13:42:05.747Z,15.60
2023-02-22T13:45:04.134Z,14.93
2023-02-22T13:48:22.339Z,14.80
2023-02-22T13:51:14.876Z,14.43
2023-02-22T13:54:13.446Z,13.50
2023-02-22T13:56:48.887Z,16.60
2023-02-22T13:59:37.225Z,18.77
2023-02-22T14:02:16.842Z,14.03
2023-02-22T14:04:44.125Z,17.93
2023-02-22T14:07:23.814Z,15.13
2023-02-22T14:09:57.175Z,15.33
2023-02-22T14:12:29.879Z,12.60
2023-02-22T14:15:28.664Z,14.83
2023-02-22T14:18:07.245Z,13.83
2023-02-22T14:20:36.668Z,15.23
2023-02-22T14:23:28.729Z,15.40
2023-02-22T14:25:56.804Z,14.97
2023-02-22T14:28:46.208Z,13.20
2023-02-22T14:31:33.331Z,12.07
2023-02-22T14:34:08.292Z,13.90
2023-02-22T14:37:00.914Z,20.47
2023-02-22T14:39:34.222Z,14.10
2023-02-22T14:42:19.173Z,14.87
2023-02-22T14:44:52.576Z,14.13
2023-02-22T14:47:28.154Z,17.10
2023-02-22T14:50:05.302Z,15.23
2023-02-22T14:52:36.648Z,15.43
2023-02-22T14:55:07.043Z,16.23
2023-02-22T14:58:05.952Z,16.80
2023-02-22T15:00:45.805Z,17.17
2023-02-22T15:03:38.340Z,16.37
2023-02-22T15:06:07.615Z,16.37
2023-02-22T15:08:34.949Z,15.03
2023-02-22T15:11:04.793Z,22.53
2023-02-22T15:13:33.122Z,18.40
2023-02-22T15:16:07.726Z,16.93
2023-02-22T15:18:40.421Z,19.10
2023-02-22T15:21:15.845Z,17.60
2023-02-22T15:23:48.984Z,23.30
2023-02-22T15:26:31.282Z,18.67
2023-02-22T15:28:59.511Z,18.77
2023-02-22T15:31:31.026Z,21.67
2023-02-22T15:34:08.868Z,17.30
2023-02-22T15:36:35.442Z,20.47
2023-02-22T15:39:07.865Z,17.73
2023-02-22T15:41:35.649Z,16.37
2023-02-22T15:44:23.242Z,19.70
2023-02-22T15:46:51.042Z,15.73
2023-02-22T15:49:21.399Z,18.20
2023-02-22T15:52:01.539Z,18.07
2023-02-22T15:54:28.368Z,17.87
2023-02-22T15:56:56.342Z,16.60
2023-02-22T15:59:30.215Z,17.23
2023-02-22T16:01:59.390Z,23.50
2023-02-22T16:04:30.136Z,16.63
2023-02-22T16:07:16.849Z,16.13
2023-02-22T16:09:51.188Z,17.50
2023-02-22T16:12:20.844Z,16.50
2023-02-22T16:14:52.491Z,14.20
2023-02-22T16:17:25.627Z,16.53
2023-02-22T16:19:53.281Z,15.60
2023-02-22T16:22:36.650Z,16.83
2023-02-22T16:25:35.332Z,17.07
2023-02-22T16:28:23.310Z,17.63
2023-02-22T16:30:57.340Z,14.87
2023-02-22T16:33:24.025Z,15.83
2023-02-22T16:35:53.663Z,14.13
2023-02-22T16:38:21.095Z,17.27
2023-02-22T16:40:56.446Z,20.17
2023-02-22T16:43:25.955Z,17.70
2023-02-22T16:45:55.262Z,16.47
2023-02-22T16:48:24.154Z,20.47
2023-02-22T16:50:53.242Z,16.50
2023-02-22T16:53:24.992Z,17.80
2023-02-22T16:56:02.055Z,16.20
2023-02-22T16:58:32.508Z,18.80
2023-02-22T17:00:59.168Z,15.67
2023-02-22T17:03:26.704Z,32.80
2023-02-22T17:05:53.618Z,18.07
2023-02-22T17:08:20.340Z,18.10
2023-02-22T17:10:47.231Z,19.10
2023-02-22T17:13:23.071Z,19.20
2023-02-22T17:15:54.647Z,18.50
2023-02-22T17:18:23.187Z,18.80
2023-02-22T17:20:54.873Z,22.10
2023-02-22T17:23:23.209Z,19.20
2023-02-22T17:26:02.188Z,19.43
2023-02-22T17:28:29.292Z,21.87
2023-02-22T17:31:01.971Z,19.67
2023-02-22T17:33:31.270Z,18.53
2023-02-22T17:35:59.593Z,18.63
2023-02-22T17:38:30.105Z,20.13
2023-02-22T17:40:58.616Z,18.83
2023-02-22T17:43:27.695Z,17.53
2023-02-22T17:45:54.995Z,18.63
2023-02-22T17:48:24.139Z,22.73
2023-02-22T17:55:06.795Z,20.10
2023-02-22T17:57:34.172Z,20.10
2023-02-22T18:00:02.205Z,17.77
2023-02-22T18:02:28.898Z,16.97
2023-02-22T18:04:55.566Z,17.23
2023-02-22T18:07:22.269Z,16.50
2023-02-22T18:09:49.027Z,19.20
2023-02-22T18:12:15.668Z,16.03
2023-02-22T18:14:42.323Z,20.17
2023-02-22T18:17:08.934Z,16.47
2023-02-22T18:19:35.517Z,14.80
2023-02-22T18:22:02.903Z,14.20
2023-02-22T18:24:34.443Z,16.87
2023-02-22T18:27:05.806Z,14.10
2023-02-22T18:29:32.932Z,14.90
2023-02-22T18:31:59.779Z,17.93
2023-02-22T18:34:27.399Z,13.80
2023-02-22T18:36:54.902Z,12.97
2023-02-22T18:39:21.640Z,13.83
2023-02-22T18:41:48.774Z,16.07
2023-02-22T18:44:16.223Z,12.13
2023-02-22T18:46:45.700Z,12.77
2023-02-22T18:49:13.828Z,14.13
2023-02-22T18:51:43.377Z,13.07
2023-02-22T18:54:12.182Z,12.40
2023-02-22T18:56:40.204Z,14.00
2023-02-22T18:59:12.044Z,14.50
2023-02-22T19:01:40.723Z,14.17
2023-02-22T19:04:14.908Z,13.43
2023-02-22T19:06:43.014Z,13.27
2023-02-22T19:09:09.666Z,14.10
2023-02-22T19:11:37.150Z,13.90
2023-02-22T19:14:05.095Z,13.77
2023-02-22T19:16:32.494Z,13.07
2023-02-22T19:18:59.148Z,16.87
2023-02-22T19:21:30.958Z,14.20
2023-02-22T19:24:00.744Z,13.40
2023-02-22T19:26:28.975Z,16.53
2023-02-22T19:28:57.418Z,15.20
2023-02-22T19:31:29.527Z,17.63
2023-02-22T19:34:00.673Z,16.30
2023-02-22T19:36:27.910Z,16.10
2023-02-22T19:38:54.545Z,17.17
2023-02-22T19:41:23.199Z,15.67
2023-02-22T19:43:51.816Z,16.27
2023-02-22T19:46:21.035Z,16.07
2023-02-22T19:48:48.942Z,15.43
2023-02-22T19:51:17.311Z,14.83
2023-02-22T19:53:45.154Z,13.90
2023-02-22T19:56:17.113Z,15.83
2023-02-22T19:58:46.032Z,18.40
2023-02-22T20:01:22.676Z,17.93
2023-02-22T20:03:54.853Z,15.90
2023-02-22T20:06:25.479Z,16.43
2023-02-22T20:08:56.184Z,15.67
2023-02-22T20:11:24.334Z,16.50
2023-02-22T20:13:51.167Z,14.00
2023-02-22T20:16:17.834Z,18.37
2023-02-22T20:18:48.409Z,15.90
2023-02-22T20:21:34.610Z,16.03
2023-02-22T20:24:03.762Z,16.73
2023-02-22T20:26:34.946Z,17.00
2023-02-22T20:29:04.019Z,14.80
2023-02-22T20:31:31.984Z,16.23
2023-02-22T20:34:00.597Z,18.03
2023-02-22T20:36:30.409Z,17.50
2023-02-22T20:38:59.110Z,14.70
2023-02-22T20:41:33.884Z,17.77
2023-02-22T20:44:02.653Z,16.53
2023-02-22T20:46:37.292Z,15.73
2023-02-22T20:49:11.111Z,16.40
2023-02-22T20:51:41.908Z,16.13
2023-02-22T20:54:11.404Z,17.33
2023-02-22T20:56:40.646Z,15.13
2023-02-22T20:59:07.795Z,18.37
2023-02-22T21:01:34.655Z,16.23
2023-02-22T21:04:02.818Z,12.10
2023-02-22T21:06:30.826Z,16.20
2023-02-22T21:08:59.876Z,15.10
2023-02-22T21:11:30.317Z,16.37
2023-02-22T21:13:57.350Z,13.80
2023-02-22T21:16:26.333Z,17.63
2023-02-22T21:18:58.548Z,16.10
2023-02-22T21:21:27.049Z,18.83
2023-02-22T21:23:55.705Z,15.77
2023-02-22T21:26:25.236Z,18.57
2023-02-22T21:28:52.998Z,16.47
2023-02-22T21:31:24.632Z,17.13
2023-02-22T21:33:53.266Z,16.70
2023-02-22T21:36:20.800Z,18.63
2023-02-22T21:38:54.130Z,16.70
2023-02-22T21:41:23.550Z,20.47
2023-02-22T21:43:51.444Z,19.23
2023-02-22T21:46:19.226Z,15.50
2023-02-22T21:48:48.735Z,18.97
2023-02-22T21:51:21.829Z,17.20
2023-02-22T21:53:52.068Z,15.00
2023-02-22T21:56:23.656Z,16.73
2023-02-22T21:58:59.037Z,19.73
2023-02-22T22:01:28.307Z,19.23
2023-02-22T22:03:56.671Z,16.40
2023-02-22T22:06:23.313Z,17.47
2023-02-22T22:08:50.344Z,15.43
2023-02-22T22:11:17.927Z,20.30
2023-02-22T22:13:44.780Z,16.17
2023-02-22T22:16:16.526Z,20.47
2023-02-22T22:18:45.385Z,19.33
2023-02-22T22:21:17.852Z,16.73
2023-02-22T22:23:47.020Z,18.80
2023-02-22T22:26:19.896Z,16.57
2023-02-22T22:28:52.266Z,14.60
2023-02-22T22:31:21.453Z,16.67
2023-02-22T22:33:48.395Z,15.20
2023-02-22T22:36:17.400Z,16.33
2023-02-22T22:38:46.945Z,16.67
2023-02-22T22:41:15.436Z,15.73
2023-02-22T22:43:46.386Z,18.50
2023-02-22T22:46:16.092Z,17.87
2023-02-22T22:48:46.752Z,19.90
2023-02-22T22:51:21.102Z,17.10
2023-02-22T22:53:49.636Z,15.70
2023-02-22T22:56:29.103Z,17.13
2023-02-22T22:58:57.947Z,18.43
2023-02-22T23:01:27.633Z,17.03
2023-02-22T23:03:56.752Z,15.60
2023-02-22T23:06:32.781Z,17.70
2023-02-22T23:09:11.338Z,17.70
2023-02-22T23:11:44.475Z,15.27
2023-02-22T23:14:24.196Z,18.07
2023-02-22T23:17:02.989Z,16.63
2023-02-22T23:19:34.920Z,18.43
2023-02-22T23:22:05.158Z,18.40
2023-02-22T23:24:35.977Z,17.33
2023-02-22T23:27:07.069Z,22.87
2023-02-22T23:29:36.653Z,17.70
2023-02-22T23:32:05.582Z,16.27
2023-02-22T23:34:33.147Z,16.73
2023-02-22T23:36:59.980Z,18.60
2023-02-22T23:39:27.170Z,18.13
2023-02-22T23:41:56.756Z,16.23
2023-02-22T23:44:23.343Z,18.10
2023-02-22T23:46:54.920Z,16.50
2023-02-22T23:49:26.878Z,19.47
2023-02-22T23:51:54.426Z,15.57
2023-02-22T23:54:21.632Z,19.77
2023-02-22T23:56:57.978Z,17.00
2023-02-22T23:59:26.414Z,16.57
